createdAt,value
2022-10-23T00:01:36.374Z,95470.40
2022-10-23T00:04:26.357Z,95472.80
2022-10-23T00:06:52.939Z,95473.00
2022-10-23T00:09:23.682Z,95467.80
2022-10-23T00:11:53.056Z,95470.60
2022-10-23T00:14:24.022Z,95470.00
2022-10-23T00:16:51.135Z,95464.00
2022-10-23T00:19:18.040Z,95460.80
2022-10-23T00:21:44.643Z,95455.00
2022-10-23T00:24:11.362Z,95463.40
2022-10-23T00:26:40.520Z,95475.20
2022-10-23T00:29:09.476Z,95469.60
2022-10-23T00:31:37.454Z,95466.60
2022-10-23T00:34:08.070Z,95465.40
2022-10-23T00:36:35.331Z,95460.20
2022-10-23T00:39:01.937Z,95458.80
2022-10-23T00:41:32.264Z,95461.20
2022-10-23T00:44:11.662Z,95460.20
2022-10-23T00:46:40.144Z,95461.60
2022-10-23T00:49:09.721Z,95460.20
2022-10-23T00:51:44.889Z,95460.60
2022-10-23T00:54:29.169Z,95461.20
2022-10-23T00:57:02.815Z,95457.00
2022-10-23T00:59:30.522Z,95458.20
2022-10-23T01:01:58.368Z,95457.20
2022-10-23T01:04:28.127Z,95457.00
2022-10-23T01:07:27.534Z,95458.20
2022-10-23T01:10:22.339Z,95455.40
2022-10-23T01:13:17.054Z,95457.20
2022-10-23T01:15:53.643Z,95449.00
2022-10-23T01:18:33.038Z,95444.40
2022-10-23T01:21:14.898Z,95443.20
2022-10-23T01:24:12.847Z,95444.00
2022-10-23T01:27:17.723Z,95439.00
2022-10-23T01:30:06.567Z,95432.20
2022-10-23T01:32:53.803Z,95435.00
2022-10-23T01:35:25.326Z,95435.80
2022-10-23T01:38:15.390Z,95435.40
2022-10-23T01:41:09.853Z,95440.20
2022-10-23T01:43:53.600Z,95445.60
2022-10-23T01:46:22.408Z,95449.00
2022-10-23T01:48:55.432Z,95440.00
2022-10-23T01:51:26.271Z,95430.20
2022-10-23T01:53:58.480Z,95427.60
2022-10-23T01:56:38.390Z,95425.60
2022-10-23T01:59:16.480Z,95423.00
2022-10-23T02:01:47.033Z,95421.60
2022-10-23T02:04:31.572Z,95416.00
2022-10-23T02:06:58.423Z,95415.60
2022-10-23T02:09:25.515Z,95408.00
2022-10-23T02:12:07.060Z,95405.20
2022-10-23T02:14:48.636Z,95399.20
2022-10-23T02:18:02.872Z,95396.60
2022-10-23T02:23:55.372Z,95394.20
2022-10-23T02:26:40.714Z,95396.40
2022-10-23T02:29:16.155Z,95392.20
2022-10-23T02:31:43.936Z,95391.40
2022-10-23T02:34:10.478Z,95387.20
2022-10-23T02:36:37.796Z,95387.40
2022-10-23T02:39:05.546Z,95388.20
2022-10-23T02:42:22.685Z,95382.80
2022-10-23T02:45:25.390Z,95376.60
2022-10-23T02:48:34.253Z,95371.40
2022-10-23T02:51:22.668Z,95362.60
2022-10-23T02:54:27.266Z,95365.20
2022-10-23T02:57:04.799Z,95365.00
2022-10-23T02:59:45.749Z,95359.80
2022-10-23T03:02:26.202Z,95360.40
2022-10-23T03:04:55.221Z,95362.00
2022-10-23T03:07:22.104Z,95364.40
2022-10-23T03:09:48.744Z,95367.00
2022-10-23T03:12:15.355Z,95362.60
2022-10-23T03:14:42.009Z,95363.40
2022-10-23T03:17:10.150Z,95363.20
2022-10-23T03:19:36.696Z,95361.40
2022-10-23T03:22:03.735Z,95362.00
2022-10-23T03:24:30.533Z,95359.80
2022-10-23T03:26:57.084Z,95358.20
2022-10-23T03:29:29.692Z,95351.80
2022-10-23T03:31:56.816Z,95343.60
2022-10-23T03:34:23.686Z,95346.00
2022-10-23T03:36:53.211Z,95339.80
2022-10-23T03:39:20.317Z,95336.80
2022-10-23T03:41:47.462Z,95341.40
2022-10-23T03:44:14.548Z,95345.60
2022-10-23T03:46:44.046Z,95346.20
2022-10-23T03:49:10.682Z,95342.60
2022-10-23T03:51:37.347Z,95343.80
2022-10-23T03:54:03.996Z,95348.00
2022-10-23T03:56:30.692Z,95349.00
2022-10-23T03:58:57.300Z,95346.80
2022-10-23T04:01:24.689Z,95344.40
2022-10-23T04:03:51.568Z,95341.00
2022-10-23T04:06:18.304Z,95344.20
2022-10-23T04:08:45.473Z,95345.00
2022-10-23T04:11:15.280Z,95341.20
2022-10-23T04:13:45.421Z,95339.80
2022-10-23T04:16:12.063Z,95338.80
2022-10-23T04:18:41.754Z,95341.00
2022-10-23T04:21:10.172Z,95346.20
2022-10-23T04:23:36.790Z,95341.60
2022-10-23T04:26:05.245Z,95342.60
2022-10-23T04:28:32.153Z,95344.60
2022-10-23T04:30:59.482Z,95334.60
2022-10-23T04:33:26.213Z,95336.40
2022-10-23T04:35:52.942Z,95339.80
2022-10-23T04:38:19.609Z,95341.80
2022-10-23T04:40:46.259Z,95345.20
2022-10-23T04:43:15.424Z,95342.40
2022-10-23T04:45:42.433Z,95340.20
2022-10-23T04:48:09.870Z,95339.60
2022-10-23T04:51:06.260Z,95341.20
2022-10-23T04:53:59.763Z,95340.00
2022-10-23T04:56:44.196Z,95337.20
2022-10-23T04:59:17.128Z,95336.60
2022-10-23T05:01:44.316Z,95329.80
2022-10-23T05:04:10.952Z,95328.80
2022-10-23T05:07:00.629Z,95327.60
2022-10-23T05:09:37.251Z,95327.20
2022-10-23T05:12:25.546Z,95324.00
2022-10-23T05:14:54.044Z,95326.40
2022-10-23T05:17:30.181Z,95323.80
2022-10-23T05:20:01.524Z,95324.60
2022-10-23T05:22:33.995Z,95321.00
2022-10-23T05:25:02.610Z,95321.60
2022-10-23T05:27:31.566Z,95314.20
2022-10-23T05:29:58.516Z,95310.60
2022-10-23T05:32:31.543Z,95308.20
2022-10-23T05:35:00.835Z,95310.40
2022-10-23T05:37:29.512Z,95312.80
2022-10-23T05:40:08.304Z,95309.40
2022-10-23T05:42:38.281Z,95308.40
2022-10-23T05:45:08.302Z,95305.20
2022-10-23T05:47:53.927Z,95307.00
2022-10-23T05:50:44.955Z,95300.60
2022-10-23T05:53:23.494Z,95303.20
2022-10-23T05:56:10.374Z,95304.80
2022-10-23T05:59:19.083Z,95306.60
2022-10-23T06:02:11.985Z,95303.20
2022-10-23T06:04:47.091Z,95303.60
2022-10-23T06:07:37.012Z,95311.00
2022-10-23T06:10:06.637Z,95315.00
2022-10-23T06:12:35.856Z,95316.80
2022-10-23T06:15:04.383Z,95318.40
2022-10-23T06:17:48.303Z,95323.60
2022-10-23T06:20:15.285Z,95322.00
2022-10-23T06:22:42.196Z,95316.80
2022-10-23T06:25:21.992Z,95313.00
2022-10-23T06:27:51.221Z,95310.80
2022-10-23T06:30:18.307Z,95308.60
2022-10-23T06:32:45.808Z,95303.20
2022-10-23T06:35:14.736Z,95306.80
2022-10-23T06:37:41.441Z,95305.60
2022-10-23T06:40:11.865Z,95302.00
2022-10-23T06:42:52.041Z,95301.80
2022-10-23T06:45:29.938Z,95306.00
2022-10-23T06:48:16.520Z,95309.80
2022-10-23T06:50:53.943Z,95309.20
2022-10-23T06:53:25.035Z,95306.20
2022-10-23T06:56:00.803Z,95313.80
2022-10-23T06:58:28.376Z,95318.20
2022-10-23T07:01:05.895Z,95321.00
2022-10-23T07:03:34.250Z,95327.40
2022-10-23T07:06:04.282Z,95328.00
2022-10-23T07:08:31.643Z,95329.00
2022-10-23T07:11:03.127Z,95322.80
2022-10-23T07:13:29.755Z,95320.60
2022-10-23T07:16:21.670Z,95321.60
2022-10-23T07:18:50.630Z,95317.60
2022-10-23T07:21:40.151Z,95315.60
2022-10-23T07:24:17.701Z,95308.80
2022-10-23T07:26:44.840Z,95305.20
2022-10-23T07:29:13.710Z,95300.60
2022-10-23T07:31:41.300Z,95296.20
2022-10-23T07:34:32.204Z,95292.20
2022-10-23T07:37:31.190Z,95303.40
2022-10-23T07:39:59.513Z,95304.20
2022-10-23T07:42:26.124Z,95305.60
2022-10-23T07:44:53.027Z,95315.40
2022-10-23T07:47:19.612Z,95321.60
2022-10-23T07:49:48.593Z,95321.00
2022-10-23T07:52:15.918Z,95317.60
2022-10-23T07:55:01.897Z,95311.60
2022-10-23T07:57:31.189Z,95307.20
2022-10-23T08:00:09.403Z,95309.20
2022-10-23T08:02:40.552Z,95302.20
2022-10-23T08:05:08.507Z,95303.80
2022-10-23T08:07:41.049Z,95302.60
2022-10-23T08:10:08.343Z,95304.20
2022-10-23T08:12:37.986Z,95298.60
2022-10-23T08:15:05.320Z,95296.40
2022-10-23T08:17:39.170Z,95291.20
2022-10-23T08:20:13.808Z,95290.00
2022-10-23T08:22:43.389Z,95291.20
2022-10-23T08:25:10.632Z,95289.60
2022-10-23T08:27:38.447Z,95293.20
2022-10-23T08:30:05.910Z,95291.40
2022-10-23T08:32:32.520Z,95290.20
2022-10-23T08:35:00.408Z,95290.40
2022-10-23T08:37:29.518Z,95291.80
2022-10-23T08:39:56.171Z,95288.40
2022-10-23T08:42:41.483Z,95290.80
2022-10-23T08:45:43.355Z,95296.00
2022-10-23T08:48:50.700Z,95292.20
2022-10-23T08:51:51.008Z,95290.20
2022-10-23T08:54:25.553Z,95288.60
2022-10-23T08:57:01.423Z,95276.20
2022-10-23T08:59:39.760Z,95265.20
2022-10-23T09:02:21.721Z,95260.80
2022-10-23T09:04:52.797Z,95252.20
2022-10-23T09:08:03.068Z,95243.00
2022-10-23T09:10:52.823Z,95240.60
2022-10-23T09:13:59.584Z,95243.80
2022-10-23T09:17:01.378Z,95247.60
2022-10-23T09:19:30.334Z,95240.00
2022-10-23T09:21:58.047Z,95236.60
2022-10-23T09:24:28.453Z,95239.20
2022-10-23T09:26:55.113Z,95237.20
2022-10-23T09:29:31.837Z,95231.20
2022-10-23T09:32:01.721Z,95227.40
2022-10-23T09:34:31.089Z,95222.60
2022-10-23T09:37:22.399Z,95223.80
2022-10-23T09:39:48.989Z,95232.80
2022-10-23T09:42:25.678Z,95232.40
2022-10-23T09:44:54.841Z,95235.20
2022-10-23T09:47:25.244Z,95229.60
2022-10-23T09:49:55.431Z,95215.80
2022-10-23T09:52:30.223Z,95212.40
2022-10-23T09:55:14.681Z,95209.40
2022-10-23T09:57:44.679Z,95208.60
2022-10-23T10:00:14.853Z,95207.00
2022-10-23T10:02:54.075Z,95189.40
2022-10-23T10:05:42.520Z,95193.20
2022-10-23T10:08:20.716Z,95191.80
2022-10-23T10:11:04.932Z,95191.20
2022-10-23T10:13:36.546Z,95196.00
2022-10-23T10:16:51.025Z,95194.20
2022-10-23T10:19:23.597Z,95200.60
2022-10-23T10:22:21.749Z,95193.00
2022-10-23T10:25:18.681Z,95193.00
2022-10-23T10:28:11.937Z,95195.20
2022-10-23T10:31:00.487Z,95195.80
2022-10-23T10:34:19.757Z,95195.40
2022-10-23T10:37:25.208Z,95191.80
2022-10-23T10:40:01.038Z,95189.20
2022-10-23T10:42:45.852Z,95186.00
2022-10-23T10:45:25.311Z,95186.60
2022-10-23T10:48:10.140Z,95183.20
2022-10-23T10:51:23.361Z,95175.20
2022-10-23T10:54:39.179Z,95161.80
2022-10-23T10:57:31.719Z,95162.40
2022-10-23T11:00:13.372Z,95159.00
2022-10-23T11:02:47.462Z,95161.40
2022-10-23T11:05:20.291Z,95155.20
2022-10-23T11:08:09.514Z,95151.40
2022-10-23T11:10:42.169Z,95149.40
2022-10-23T11:13:28.384Z,95146.60
2022-10-23T11:16:23.722Z,95143.60
2022-10-23T11:19:11.307Z,95145.60
2022-10-23T11:21:58.828Z,95140.80
2022-10-23T11:24:59.557Z,95134.80
2022-10-23T11:27:43.614Z,95125.40
2022-10-23T11:30:55.643Z,95125.80
2022-10-23T11:33:53.517Z,95130.00
2022-10-23T11:36:39.491Z,95129.20
2022-10-23T11:39:32.636Z,95130.20
2022-10-23T11:42:05.753Z,95127.20
2022-10-23T11:44:35.095Z,95124.80
2022-10-23T11:47:06.384Z,95126.80
2022-10-23T11:49:33.057Z,95120.80
2022-10-23T11:52:05.680Z,95107.80
2022-10-23T11:54:32.409Z,95105.00
2022-10-23T11:57:12.175Z,95098.80
2022-10-23T11:59:52.243Z,95099.00
2022-10-23T12:02:29.179Z,95100.20
2022-10-23T12:04:56.414Z,95103.40
2022-10-23T12:07:28.572Z,95104.60
2022-10-23T12:10:05.306Z,95103.80
2022-10-23T12:12:43.179Z,95105.60
2022-10-23T12:15:15.656Z,95094.20
2022-10-23T12:17:43.984Z,95092.20
2022-10-23T12:20:11.410Z,95088.20
2022-10-23T12:23:30.307Z,95079.00
2022-10-23T12:26:38.066Z,95081.20
2022-10-23T12:29:32.235Z,95072.40
2022-10-23T12:32:43.892Z,95075.40
2022-10-23T12:35:38.254Z,95077.80
2022-10-23T12:38:28.640Z,95075.00
2022-10-23T12:41:12.509Z,95076.80
2022-10-23T12:43:44.348Z,95075.40
2022-10-23T12:46:40.220Z,95062.80
2022-10-23T12:49:18.284Z,95064.80
2022-10-23T12:51:46.669Z,95060.00
2022-10-23T12:54:20.470Z,95056.80
2022-10-23T12:56:48.064Z,95052.20
2022-10-23T12:59:28.278Z,95052.60
2022-10-23T13:01:55.578Z,95052.80
2022-10-23T13:04:35.266Z,95055.60
2022-10-23T13:07:03.764Z,95054.40
2022-10-23T13:09:41.227Z,95058.80
2022-10-23T13:12:24.618Z,95052.40
2022-10-23T13:15:06.324Z,95044.00
2022-10-23T13:17:47.394Z,95042.00
2022-10-23T13:20:26.265Z,95043.00
2022-10-23T13:23:32.949Z,95043.60
2022-10-23T13:26:21.877Z,95043.20
2022-10-23T13:28:48.841Z,95040.00
2022-10-23T13:31:15.375Z,95038.60
2022-10-23T13:33:47.829Z,95038.80
2022-10-23T13:36:17.350Z,95033.00
2022-10-23T13:38:58.926Z,95025.00
2022-10-23T13:41:27.684Z,95028.20
2022-10-23T13:43:54.268Z,95023.60
2022-10-23T13:46:25.851Z,95026.00
2022-10-23T13:48:53.170Z,95023.40
2022-10-23T13:51:23.400Z,95022.00
2022-10-23T13:53:52.004Z,95023.40
2022-10-23T13:56:22.678Z,95026.40
2022-10-23T13:58:49.482Z,95025.00
2022-10-23T14:01:30.080Z,95027.60
2022-10-23T14:03:59.521Z,95029.80
2022-10-23T14:06:26.340Z,95034.80
2022-10-23T14:08:52.933Z,95030.00
2022-10-23T14:11:20.533Z,95029.60
2022-10-23T14:13:49.136Z,95030.00
2022-10-23T14:16:19.078Z,95026.60
2022-10-23T14:18:45.691Z,95025.60
2022-10-23T14:21:17.164Z,95023.20
2022-10-23T14:23:43.801Z,95023.00
2022-10-23T14:26:15.405Z,95023.40
2022-10-23T14:28:43.086Z,95021.00
2022-10-23T14:31:16.599Z,95015.00
2022-10-23T14:33:45.477Z,95012.20
2022-10-23T14:36:13.510Z,95008.80
2022-10-23T14:38:40.119Z,95013.40
2022-10-23T14:41:16.359Z,95013.40
2022-10-23T14:43:43.489Z,95010.20
2022-10-23T14:46:16.245Z,95013.40
2022-10-23T14:48:46.172Z,95016.60
2022-10-23T14:51:34.219Z,95016.00
2022-10-23T14:54:06.890Z,95007.60
2022-10-23T14:56:40.379Z,95008.60
2022-10-23T14:59:08.548Z,95010.20
2022-10-23T15:01:43.703Z,95005.40
2022-10-23T15:04:15.653Z,95001.00
2022-10-23T15:06:42.957Z,95003.80
2022-10-23T15:09:09.563Z,95006.00
2022-10-23T15:11:36.245Z,95002.20
2022-10-23T15:14:02.920Z,94998.40
2022-10-23T15:16:29.523Z,94996.60
2022-10-23T15:18:56.073Z,95000.80
2022-10-23T15:21:22.829Z,95002.60
2022-10-23T15:23:49.654Z,95000.20
2022-10-23T15:26:23.618Z,94989.40
2022-10-23T15:29:01.985Z,94988.20
2022-10-23T15:31:37.791Z,94989.20
2022-10-23T15:34:05.900Z,94989.40
2022-10-23T15:36:33.287Z,94991.40
2022-10-23T15:39:00.516Z,94991.80
2022-10-23T15:41:33.324Z,94992.00
2022-10-23T15:44:01.459Z,94986.00
2022-10-23T15:46:29.191Z,94982.20
2022-10-23T15:48:55.801Z,94982.80
2022-10-23T15:51:23.013Z,94984.60
2022-10-23T15:53:49.919Z,94986.40
2022-10-23T15:56:16.503Z,94985.00
2022-10-23T15:58:43.292Z,94980.00
2022-10-23T16:01:10.266Z,94973.60
2022-10-23T16:03:38.705Z,94967.80
2022-10-23T16:06:07.984Z,94969.80
2022-10-23T16:08:35.580Z,94976.00
2022-10-23T16:11:02.966Z,94978.00
2022-10-23T16:13:29.650Z,94972.20
2022-10-23T16:15:56.314Z,94966.60
2022-10-23T16:18:23.394Z,94968.40
2022-10-23T16:20:55.543Z,94965.80
2022-10-23T16:23:22.526Z,94965.00
2022-10-23T16:25:50.124Z,94965.80
2022-10-23T16:28:16.727Z,94964.20
2022-10-23T16:30:44.472Z,94966.00
2022-10-23T16:33:11.143Z,94960.20
2022-10-23T16:35:38.146Z,94966.00
2022-10-23T16:38:09.025Z,94966.60
2022-10-23T16:40:35.568Z,94963.00
2022-10-23T16:43:20.877Z,94958.60
2022-10-23T16:46:16.770Z,94950.40
2022-10-23T16:48:44.071Z,94955.20
2022-10-23T16:51:14.808Z,94959.40
2022-10-23T16:53:42.919Z,94963.80
2022-10-23T16:56:12.717Z,94965.40
2022-10-23T16:58:41.012Z,94966.40
2022-10-23T17:01:17.507Z,94967.60
2022-10-23T17:03:48.410Z,94973.60
2022-10-23T17:06:19.124Z,94968.00
2022-10-23T17:08:46.305Z,94969.40
2022-10-23T17:11:20.778Z,94979.60
2022-10-23T17:13:55.218Z,94979.00
2022-10-23T17:16:44.444Z,94983.80
2022-10-23T17:19:20.945Z,94985.40
2022-10-23T17:22:00.427Z,94990.00
2022-10-23T17:24:27.110Z,94996.40
2022-10-23T17:26:54.095Z,95000.80
2022-10-23T17:29:21.118Z,95002.80
2022-10-23T17:31:50.397Z,95001.80
2022-10-23T17:34:23.295Z,94993.00
2022-10-23T17:36:53.748Z,94993.80
2022-10-23T17:39:24.668Z,95006.20
2022-10-23T17:41:52.017Z,95007.00
2022-10-23T17:44:19.256Z,95008.40
2022-10-23T17:46:45.953Z,95007.00
2022-10-23T17:49:13.141Z,95002.20
2022-10-23T17:51:40.058Z,95003.40
2022-10-23T17:54:10.817Z,94999.00
2022-10-23T17:56:38.766Z,95000.40
2022-10-23T17:59:12.527Z,95010.60
2022-10-23T18:01:39.651Z,94998.20
2022-10-23T18:04:07.901Z,94995.20
2022-10-23T18:06:42.516Z,95000.60
2022-10-23T18:09:10.070Z,95001.00
2022-10-23T18:11:45.312Z,95002.40
2022-10-23T18:14:20.061Z,95001.60
2022-10-23T18:16:47.606Z,95006.60
2022-10-23T18:19:18.050Z,95007.40
2022-10-23T18:21:44.996Z,95018.60
2022-10-23T18:24:11.654Z,95027.00
2022-10-23T18:26:41.063Z,95027.40
2022-10-23T18:29:09.390Z,95022.80
2022-10-23T18:31:37.528Z,95029.40
2022-10-23T18:34:09.047Z,95022.00
2022-10-23T18:36:39.668Z,95008.80
2022-10-23T18:39:11.099Z,94997.40
2022-10-23T18:41:41.362Z,95000.00
2022-10-23T18:44:09.113Z,95015.40
2022-10-23T18:46:36.328Z,95024.20
2022-10-23T18:49:03.714Z,95020.00
2022-10-23T18:51:33.754Z,95020.00
2022-10-23T18:54:03.834Z,95021.00
2022-10-23T18:56:30.937Z,95021.80
2022-10-23T18:58:59.965Z,95012.60
2022-10-23T19:01:28.280Z,95005.60
2022-10-23T19:03:57.592Z,95007.40
2022-10-23T19:06:24.961Z,95002.20
2022-10-23T19:08:51.880Z,95003.80
2022-10-23T19:11:21.967Z,95010.20
2022-10-23T19:13:48.535Z,95013.00
2022-10-23T19:16:24.991Z,95015.40
2022-10-23T19:18:58.500Z,95017.60
2022-10-23T19:21:31.677Z,95018.80
2022-10-23T19:24:02.224Z,95019.60
2022-10-23T19:26:31.498Z,95020.80
2022-10-23T19:28:58.685Z,95014.60
2022-10-23T19:31:26.879Z,95016.20
2022-10-23T19:33:54.262Z,95019.20
2022-10-23T19:36:23.433Z,95017.20
2022-10-23T19:38:51.003Z,95021.40
2022-10-23T19:41:18.867Z,95025.40
2022-10-23T19:43:45.676Z,95024.40
2022-10-23T19:46:12.559Z,95020.80
2022-10-23T19:48:44.991Z,95016.80
2022-10-23T19:51:13.477Z,95015.20
2022-10-23T19:53:42.587Z,95015.00
2022-10-23T19:56:11.967Z,95016.80
2022-10-23T19:58:39.479Z,95021.80
2022-10-23T20:01:13.395Z,95016.40
2022-10-23T20:03:42.299Z,95013.40
2022-10-23T20:06:11.486Z,95012.60
2022-10-23T20:08:39.350Z,95014.80
2022-10-23T20:11:07.609Z,95015.80
2022-10-23T20:13:34.332Z,95012.00
2022-10-23T20:16:00.903Z,95011.80
2022-10-23T20:18:27.592Z,95009.40
2022-10-23T20:20:54.549Z,95005.20
2022-10-23T20:23:21.239Z,95007.80
2022-10-23T20:25:47.842Z,95006.80
2022-10-23T20:28:15.318Z,95012.00
2022-10-23T20:30:44.444Z,95012.80
2022-10-23T20:33:11.125Z,95020.80
2022-10-23T20:35:41.422Z,95027.60
2022-10-23T20:38:08.997Z,95028.80
2022-10-23T20:40:36.161Z,95036.00
2022-10-23T20:43:03.508Z,95039.20
2022-10-23T20:45:30.107Z,95050.20
2022-10-23T20:47:57.007Z,95056.60
2022-10-23T20:50:23.979Z,95068.00
2022-10-23T20:52:51.584Z,95084.60
2022-10-23T20:55:19.268Z,95100.00
2022-10-23T20:57:46.508Z,95107.80
2022-10-23T21:00:13.680Z,95123.60
2022-10-23T21:02:40.252Z,95128.80
2022-10-23T21:05:07.585Z,95119.80
2022-10-23T21:07:34.274Z,95132.00
2022-10-23T21:10:03.219Z,95146.20
2022-10-23T21:12:29.776Z,95168.00
2022-10-23T21:14:56.390Z,95181.40
2022-10-23T21:17:23.010Z,95192.60
2022-10-23T21:19:49.622Z,95190.80
2022-10-23T21:22:16.209Z,95176.40
2022-10-23T21:24:42.703Z,95185.60
2022-10-23T21:27:09.314Z,95193.60
2022-10-23T21:29:35.864Z,95185.80
2022-10-23T21:32:02.520Z,95183.00
2022-10-23T21:34:30.205Z,95187.00
2022-10-23T21:37:13.804Z,95190.60
2022-10-23T21:39:42.975Z,95189.40
2022-10-23T21:42:10.891Z,95197.80
2022-10-23T21:44:37.422Z,95204.80
2022-10-23T21:47:04.436Z,95211.80
2022-10-23T21:49:31.075Z,95217.80
2022-10-23T21:51:57.605Z,95227.20
2022-10-23T21:54:24.256Z,95233.80
2022-10-23T21:56:53.864Z,95234.80
2022-10-23T21:59:25.892Z,95237.20
2022-10-23T22:01:54.535Z,95238.20
2022-10-23T22:04:22.240Z,95237.20
2022-10-23T22:06:49.845Z,95249.00
2022-10-23T22:09:19.841Z,95257.00
2022-10-23T22:11:50.377Z,95262.80
2022-10-23T22:14:17.201Z,95269.20
2022-10-23T22:16:43.835Z,95269.80
2022-10-23T22:19:13.026Z,95280.40
2022-10-23T22:21:40.790Z,95272.60
2022-10-23T22:24:08.847Z,95266.00
2022-10-23T22:26:42.407Z,95278.20
2022-10-23T22:29:14.095Z,95275.40
2022-10-23T22:31:44.298Z,95283.20
2022-10-23T22:34:28.629Z,95289.20
2022-10-23T22:37:07.099Z,95288.00
2022-10-23T22:39:33.654Z,95287.00
2022-10-23T22:42:00.123Z,95296.60
2022-10-23T22:44:26.755Z,95300.40
2022-10-23T22:46:54.001Z,95298.00
2022-10-23T22:49:20.627Z,95294.40
2022-10-23T22:51:47.286Z,95290.80
2022-10-23T22:54:13.902Z,95297.80
2022-10-23T22:56:41.895Z,95303.40
2022-10-23T22:59:08.853Z,95310.40
2022-10-23T23:01:41.475Z,95318.00
2022-10-23T23:04:14.050Z,95317.40
2022-10-23T23:06:55.008Z,95313.80
2022-10-23T23:09:21.617Z,95315.00
2022-10-23T23:11:51.719Z,95318.60
2022-10-23T23:14:23.183Z,95319.60
2022-10-23T23:16:52.962Z,95319.00
2022-10-23T23:19:19.909Z,95324.20
2022-10-23T23:21:46.670Z,95323.80
2022-10-23T23:24:13.730Z,95316.20
2022-10-23T23:26:40.766Z,95312.80
2022-10-23T23:29:07.886Z,95314.20
2022-10-23T23:31:34.466Z,95315.40
2022-10-23T23:34:01.051Z,95317.80
2022-10-23T23:36:28.424Z,95317.00
2022-10-23T23:38:57.320Z,95318.80
2022-10-23T23:41:26.209Z,95316.20
2022-10-23T23:43:55.575Z,95318.60
2022-10-23T23:46:23.436Z,95323.60
2022-10-23T23:48:50.511Z,95323.80
2022-10-23T23:51:21.530Z,95320.00
2022-10-23T23:53:49.673Z,95324.80
2022-10-23T23:56:18.119Z,95327.80
2022-10-23T23:58:44.926Z,95332.40
